createdAt,value
2018-11-22T00:00:38.833Z,3.54
2018-11-22T00:01:38.855Z,3.56
2018-11-22T00:02:39.022Z,3.55
2018-11-22T00:03:39.067Z,3.58
2018-11-22T00:04:38.900Z,3.56
2018-11-22T00:05:38.994Z,3.55
2018-11-22T00:06:39.049Z,3.52
2018-11-22T00:07:38.813Z,3.52
2018-11-22T00:08:40.237Z,3.52
2018-11-22T00:09:38.885Z,3.55
2018-11-22T00:10:38.824Z,3.54
2018-11-22T00:11:38.829Z,3.55
2018-11-22T00:12:38.841Z,3.55
2018-11-22T00:13:39.258Z,3.55
2018-11-22T00:14:38.780Z,3.54
2018-11-22T00:15:38.822Z,3.55
2018-11-22T00:16:38.799Z,3.52
2018-11-22T00:17:38.835Z,3.54
2018-11-22T00:18:39.040Z,3.52
2018-11-22T00:19:38.916Z,3.51
2018-11-22T00:20:38.831Z,3.51
2018-11-22T00:21:38.786Z,3.48
2018-11-22T00:22:38.825Z,3.49
2018-11-22T00:23:38.792Z,3.52
2018-11-22T00:24:39.118Z,3.51
2018-11-22T00:25:38.865Z,3.49
2018-11-22T00:26:38.806Z,3.49
2018-11-22T00:27:38.812Z,3.48
2018-11-22T00:28:38.759Z,3.48
2018-11-22T00:29:38.833Z,3.46
2018-11-22T00:30:38.865Z,3.51
2018-11-22T00:31:38.956Z,3.51
2018-11-22T00:32:38.793Z,3.55
2018-11-22T00:33:38.989Z,3.54
2018-11-22T00:34:38.824Z,3.52
2018-11-22T00:35:39.039Z,3.54
2018-11-22T00:36:38.921Z,3.51
2018-11-22T00:37:38.825Z,3.52
2018-11-22T00:38:38.833Z,3.55
2018-11-22T00:39:39.087Z,3.56
2018-11-22T00:40:39.001Z,3.59
2018-11-22T00:41:39.026Z,3.59
2018-11-22T00:42:38.985Z,3.61
2018-11-22T00:43:38.973Z,3.59
2018-11-22T00:44:38.759Z,3.61
2018-11-22T00:45:39.246Z,3.63
2018-11-22T00:46:38.890Z,3.65
2018-11-22T00:47:38.752Z,3.66
2018-11-22T00:48:39.030Z,3.65
2018-11-22T00:49:38.792Z,3.65
2018-11-22T00:50:39.242Z,3.65
2018-11-22T00:51:39.500Z,3.65
2018-11-22T00:52:39.096Z,3.63
2018-11-22T00:53:38.992Z,3.61
2018-11-22T00:54:38.773Z,3.65
2018-11-22T00:55:38.974Z,3.59
2018-11-22T00:56:38.742Z,3.56
2018-11-22T00:57:39.092Z,3.51
2018-11-22T00:58:38.893Z,3.52
2018-11-22T00:59:38.818Z,3.51
2018-11-22T01:00:39.029Z,3.52
2018-11-22T01:01:38.844Z,3.48
2018-11-22T01:02:38.752Z,3.48
2018-11-22T01:03:38.805Z,3.45
2018-11-22T01:04:38.836Z,3.46
2018-11-22T01:05:38.812Z,3.44
2018-11-22T01:06:38.804Z,3.46
2018-11-22T01:07:38.756Z,3.42
2018-11-22T01:08:38.795Z,3.45
2018-11-22T01:09:38.991Z,3.44
2018-11-22T01:10:38.690Z,3.46
2018-11-22T01:11:38.993Z,3.45
2018-11-22T01:12:39.082Z,3.44
2018-11-22T01:13:39.082Z,3.45
2018-11-22T01:14:38.944Z,3.44
2018-11-22T01:15:39.049Z,3.42
2018-11-22T01:16:38.851Z,3.44
2018-11-22T01:17:38.740Z,3.41
2018-11-22T01:18:38.702Z,3.42
2018-11-22T01:19:38.774Z,3.44
2018-11-22T01:20:38.677Z,3.39
2018-11-22T01:21:38.873Z,3.41
2018-11-22T01:22:38.982Z,3.45
2018-11-22T01:23:38.883Z,3.44
2018-11-22T01:24:38.731Z,3.45
2018-11-22T01:25:39.020Z,3.44
2018-11-22T01:26:39.026Z,3.42
2018-11-22T01:27:39.124Z,3.41
2018-11-22T01:28:38.752Z,3.41
2018-11-22T01:29:38.876Z,3.42
2018-11-22T01:30:38.698Z,3.42
2018-11-22T01:31:38.742Z,3.44
2018-11-22T01:32:39.016Z,3.48
2018-11-22T01:33:39.054Z,3.46
2018-11-22T01:34:38.983Z,3.46
2018-11-22T01:35:38.747Z,3.44
2018-11-22T01:36:38.982Z,3.46
2018-11-22T01:37:38.934Z,3.54
2018-11-22T01:38:38.703Z,3.48
2018-11-22T01:39:39.093Z,3.48
2018-11-22T01:40:38.959Z,3.48
2018-11-22T01:41:38.693Z,3.51
2018-11-22T01:42:39.115Z,3.49
2018-11-22T01:43:38.684Z,3.46
2018-11-22T01:44:38.689Z,3.46
2018-11-22T01:45:38.801Z,3.44
2018-11-22T01:46:38.671Z,3.45
2018-11-22T01:47:38.695Z,3.37
2018-11-22T01:48:38.836Z,3.39
2018-11-22T01:49:38.663Z,3.45
2018-11-22T01:50:38.721Z,3.45
2018-11-22T01:51:38.781Z,3.45
2018-11-22T01:52:38.751Z,3.44
2018-11-22T01:53:38.711Z,3.44
2018-11-22T01:54:38.789Z,3.42
2018-11-22T01:55:38.779Z,3.41
2018-11-22T01:56:38.672Z,3.41
2018-11-22T01:57:38.753Z,3.42
2018-11-22T01:58:38.689Z,3.42
2018-11-22T01:59:38.718Z,3.42
2018-11-22T02:00:38.694Z,3.42
2018-11-22T02:01:38.730Z,3.44
2018-11-22T02:02:38.773Z,3.42
2018-11-22T02:03:39.083Z,3.46
2018-11-22T02:04:38.955Z,3.48
2018-11-22T02:05:39.016Z,3.45
2018-11-22T02:06:38.681Z,3.46
2018-11-22T02:07:38.875Z,3.44
2018-11-22T02:08:38.783Z,3.46
2018-11-22T02:09:38.638Z,3.45
2018-11-22T02:10:38.713Z,3.48
2018-11-22T02:11:38.655Z,3.52
2018-11-22T02:12:39.063Z,3.54
2018-11-22T02:13:38.647Z,3.52
2018-11-22T02:14:38.658Z,3.54
2018-11-22T02:15:38.957Z,3.55
2018-11-22T02:16:38.656Z,3.52
2018-11-22T02:17:38.794Z,3.51
2018-11-22T02:18:39.115Z,3.49
2018-11-22T02:19:38.633Z,3.52
2018-11-22T02:20:38.699Z,3.52
2018-11-22T02:21:38.663Z,3.54
2018-11-22T02:22:39.038Z,3.55
2018-11-22T02:23:38.806Z,3.56
2018-11-22T02:24:38.998Z,3.58
2018-11-22T02:25:38.624Z,3.58
2018-11-22T02:26:38.615Z,3.59
2018-11-22T02:27:38.812Z,3.56
2018-11-22T02:28:38.689Z,3.55
2018-11-22T02:29:38.726Z,3.52
2018-11-22T02:30:38.889Z,3.54
2018-11-22T02:31:38.979Z,3.54
2018-11-22T02:32:38.592Z,3.55
2018-11-22T02:33:38.652Z,3.58
2018-11-22T02:34:39.123Z,3.58
2018-11-22T02:35:39.332Z,3.61
2018-11-22T02:36:38.664Z,3.62
2018-11-22T02:37:38.612Z,3.62
2018-11-22T02:38:38.740Z,3.56
2018-11-22T02:39:38.768Z,3.56
2018-11-22T02:40:38.683Z,3.59
2018-11-22T02:41:38.739Z,3.58
2018-11-22T02:42:38.750Z,3.58
2018-11-22T02:43:38.640Z,3.58
2018-11-22T02:44:38.645Z,3.56
2018-11-22T02:45:38.667Z,3.58
2018-11-22T02:46:38.632Z,3.55
2018-11-22T02:47:38.772Z,3.55
2018-11-22T02:48:38.589Z,3.55
2018-11-22T02:49:38.991Z,3.56
2018-11-22T02:50:38.673Z,3.58
2018-11-22T02:51:39.002Z,3.58
2018-11-22T02:52:38.665Z,3.59
2018-11-22T02:53:38.742Z,3.62
2018-11-22T02:54:38.759Z,3.62
2018-11-22T02:55:38.675Z,3.58
2018-11-22T02:56:38.641Z,3.58
2018-11-22T02:57:38.752Z,3.58
2018-11-22T02:58:38.698Z,3.56
2018-11-22T02:59:38.599Z,3.61
2018-11-22T03:00:38.838Z,3.58
2018-11-22T03:01:39.049Z,3.56
2018-11-22T03:02:38.642Z,3.55
2018-11-22T03:03:38.812Z,3.58
2018-11-22T03:04:39.010Z,3.59
2018-11-22T03:05:38.566Z,3.61
2018-11-22T03:06:38.815Z,3.58
2018-11-22T03:07:38.580Z,3.56
2018-11-22T03:08:38.712Z,3.58
2018-11-22T03:09:38.669Z,3.59
2018-11-22T03:10:38.694Z,3.56
2018-11-22T03:11:38.625Z,3.56
2018-11-22T03:12:39.163Z,3.56
2018-11-22T03:13:38.628Z,3.58
2018-11-22T03:14:38.628Z,3.59
2018-11-22T03:15:38.593Z,3.58
2018-11-22T03:16:38.622Z,3.62
2018-11-22T03:17:38.582Z,3.59
2018-11-22T03:18:38.568Z,3.59
2018-11-22T03:19:38.941Z,3.56
2018-11-22T03:20:38.601Z,3.55
2018-11-22T03:21:38.621Z,3.56
2018-11-22T03:22:38.559Z,3.55
2018-11-22T03:23:38.603Z,3.55
2018-11-22T03:24:38.579Z,3.54
2018-11-22T03:25:38.538Z,3.58
2018-11-22T03:26:38.541Z,3.59
2018-11-22T03:27:38.548Z,3.59
2018-11-22T03:28:38.574Z,3.59
2018-11-22T03:29:38.597Z,3.63
2018-11-22T03:30:38.603Z,3.61
2018-11-22T03:31:38.827Z,3.62
2018-11-22T03:32:38.541Z,3.61
2018-11-22T03:33:38.693Z,3.62
2018-11-22T03:34:38.562Z,3.62
2018-11-22T03:35:38.559Z,3.62
2018-11-22T03:36:38.712Z,3.61
2018-11-22T03:37:38.564Z,3.58
2018-11-22T03:38:38.623Z,3.61
2018-11-22T03:39:38.747Z,3.61
2018-11-22T03:40:38.553Z,3.59
2018-11-22T03:41:38.645Z,3.59
2018-11-22T03:42:38.582Z,3.65
2018-11-22T03:43:38.594Z,3.65
2018-11-22T03:44:38.646Z,3.63
2018-11-22T03:45:38.638Z,3.65
2018-11-22T03:46:38.559Z,3.66
2018-11-22T03:47:38.687Z,3.63
2018-11-22T03:48:39.135Z,3.61
2018-11-22T03:49:39.115Z,3.62
2018-11-22T03:50:38.824Z,3.61
2018-11-22T03:51:38.555Z,3.58
2018-11-22T03:52:38.546Z,3.56
2018-11-22T03:53:38.607Z,3.55
2018-11-22T03:54:38.934Z,3.55
2018-11-22T03:55:38.517Z,3.54
2018-11-22T03:56:38.730Z,3.52
2018-11-22T03:57:38.585Z,3.52
2018-11-22T03:58:38.655Z,3.51
2018-11-22T03:59:38.649Z,3.49
2018-11-22T04:00:38.694Z,3.51
2018-11-22T04:01:38.517Z,3.49
2018-11-22T04:02:38.707Z,3.51
2018-11-22T04:03:38.627Z,3.51
2018-11-22T04:04:38.920Z,3.51
2018-11-22T04:05:38.514Z,3.52
2018-11-22T04:06:38.536Z,3.55
2018-11-22T04:07:38.512Z,3.55
2018-11-22T04:08:38.762Z,3.54
2018-11-22T04:09:38.514Z,3.55
2018-11-22T04:10:38.704Z,3.56
2018-11-22T04:11:38.692Z,3.54
2018-11-22T04:12:39.328Z,3.55
2018-11-22T04:13:38.675Z,3.52
2018-11-22T04:14:38.563Z,3.49
2018-11-22T04:15:38.515Z,3.46
2018-11-22T04:16:38.646Z,3.46
2018-11-22T04:17:38.458Z,3.45
2018-11-22T04:18:38.635Z,3.44
2018-11-22T04:19:38.649Z,3.42
2018-11-22T04:20:38.492Z,3.45
2018-11-22T04:21:38.847Z,3.44
2018-11-22T04:22:38.585Z,3.41
2018-11-22T04:23:38.534Z,3.42
2018-11-22T04:24:38.580Z,3.46
2018-11-22T04:25:38.486Z,3.44
2018-11-22T04:26:39.126Z,3.46
2018-11-22T04:27:38.481Z,3.46
2018-11-22T04:28:38.503Z,3.44
2018-11-22T04:29:38.839Z,3.45
2018-11-22T04:30:38.693Z,3.45
2018-11-22T04:31:38.461Z,3.44
2018-11-22T04:32:38.569Z,3.44
2018-11-22T04:33:38.503Z,3.42
2018-11-22T04:34:38.497Z,3.39
2018-11-22T04:35:38.493Z,3.39
2018-11-22T04:36:38.486Z,3.41
2018-11-22T04:37:38.447Z,3.38
2018-11-22T04:38:38.506Z,3.39
2018-11-22T04:39:38.530Z,3.39
2018-11-22T04:40:38.950Z,3.42
2018-11-22T04:41:38.542Z,3.42
2018-11-22T04:42:38.451Z,3.45
2018-11-22T04:43:38.467Z,3.44
2018-11-22T04:44:38.454Z,3.42
2018-11-22T04:45:38.973Z,3.41
2018-11-22T04:46:38.516Z,3.44
2018-11-22T04:47:38.467Z,3.46
2018-11-22T04:48:38.428Z,3.46
2018-11-22T04:49:38.553Z,3.45
2018-11-22T04:50:38.476Z,3.44
2018-11-22T04:51:38.556Z,3.46
2018-11-22T04:52:38.461Z,3.46
2018-11-22T04:53:38.518Z,3.51
2018-11-22T04:54:38.423Z,3.52
2018-11-22T04:55:38.440Z,3.56
2018-11-22T04:56:38.426Z,3.52
2018-11-22T04:57:38.450Z,3.48
2018-11-22T04:58:38.453Z,3.49
2018-11-22T04:59:38.409Z,3.49
2018-11-22T05:00:38.598Z,3.54
2018-11-22T05:01:38.435Z,3.52
2018-11-22T05:02:38.493Z,3.54
2018-11-22T05:03:39.110Z,3.55
2018-11-22T05:04:38.666Z,3.54
2018-11-22T05:05:38.514Z,3.56
2018-11-22T05:06:38.656Z,3.55
2018-11-22T05:07:38.384Z,3.55
2018-11-22T05:08:38.478Z,3.55
2018-11-22T05:09:38.538Z,3.56
2018-11-22T05:10:38.597Z,3.52
2018-11-22T05:11:38.430Z,3.52
2018-11-22T05:12:38.558Z,3.54
2018-11-22T05:13:38.567Z,3.51
2018-11-22T05:14:38.410Z,3.48
2018-11-22T05:15:39.227Z,3.45
2018-11-22T05:16:38.605Z,3.49
2018-11-22T05:17:38.391Z,3.45
2018-11-22T05:18:38.504Z,3.42
2018-11-22T05:19:38.498Z,3.42
2018-11-22T05:20:38.702Z,3.44
2018-11-22T05:21:38.402Z,3.45
2018-11-22T05:22:38.592Z,3.46
2018-11-22T05:23:38.527Z,3.45
2018-11-22T05:24:38.424Z,3.45
2018-11-22T05:25:38.404Z,3.42
2018-11-22T05:26:38.556Z,3.37
2018-11-22T05:27:38.393Z,3.39
2018-11-22T05:28:38.399Z,3.42
2018-11-22T05:29:38.408Z,3.44
2018-11-22T05:30:39.643Z,3.42
2018-11-22T05:31:38.448Z,3.42
2018-11-22T05:32:38.507Z,3.41
2018-11-22T05:33:38.495Z,3.38
2018-11-22T05:34:38.404Z,3.37
2018-11-22T05:35:38.473Z,3.38
2018-11-22T05:36:38.584Z,3.35
2018-11-22T05:37:38.533Z,3.37
2018-11-22T05:38:38.486Z,3.32
2018-11-22T05:39:38.731Z,3.34
2018-11-22T05:40:38.466Z,3.34
2018-11-22T05:41:39.603Z,3.34
2018-11-22T05:42:38.368Z,3.31
2018-11-22T05:43:38.410Z,3.29
2018-11-22T05:44:38.457Z,3.32
2018-11-22T05:45:38.619Z,3.34
2018-11-22T05:46:38.586Z,3.32
2018-11-22T05:47:38.396Z,3.31
2018-11-22T05:48:38.506Z,3.28
2018-11-22T05:49:38.492Z,3.29
2018-11-22T05:50:38.726Z,3.29
2018-11-22T05:51:38.382Z,3.28
2018-11-22T05:52:38.365Z,3.28
2018-11-22T05:53:38.520Z,3.27
2018-11-22T05:54:38.497Z,3.27
2018-11-22T05:55:38.712Z,3.27
2018-11-22T05:56:38.498Z,3.24
2018-11-22T05:57:38.981Z,3.21
2018-11-22T05:58:38.454Z,3.24
2018-11-22T05:59:38.583Z,3.17
2018-11-22T06:00:38.544Z,3.21
2018-11-22T06:01:38.426Z,3.2
2018-11-22T06:02:38.330Z,3.17
2018-11-22T06:03:38.447Z,3.15
2018-11-22T06:04:38.439Z,3.14
2018-11-22T06:05:38.472Z,3.14
2018-11-22T06:06:38.406Z,3.15
2018-11-22T06:07:38.490Z,3.14
2018-11-22T06:08:38.758Z,3.14
2018-11-22T06:09:38.337Z,3.15
2018-11-22T06:10:38.503Z,3.15
2018-11-22T06:11:38.391Z,3.18
2018-11-22T06:12:38.420Z,3.15
2018-11-22T06:13:38.331Z,3.17
2018-11-22T06:14:38.306Z,3.17
2018-11-22T06:15:38.401Z,3.17
2018-11-22T06:16:38.404Z,3.2
2018-11-22T06:17:38.304Z,3.18
2018-11-22T06:18:38.387Z,3.17
2018-11-22T06:19:38.323Z,3.15
2018-11-22T06:20:38.327Z,3.12
2018-11-22T06:21:38.313Z,3.12
2018-11-22T06:22:38.471Z,3.12
2018-11-22T06:23:38.316Z,3.12
2018-11-22T06:24:38.292Z,3.11
2018-11-22T06:25:38.297Z,3.11
2018-11-22T06:26:38.371Z,3.08
2018-11-22T06:27:38.570Z,3.06
2018-11-22T06:28:38.323Z,3.01
2018-11-22T06:29:38.369Z,3.04
2018-11-22T06:30:38.703Z,3.04
2018-11-22T06:31:38.314Z,3.03
2018-11-22T06:32:38.288Z,3.04
2018-11-22T06:33:38.298Z,3.06
2018-11-22T06:34:38.437Z,3.04
2018-11-22T06:35:38.314Z,3.07
2018-11-22T06:36:38.311Z,3.07
2018-11-22T06:37:38.613Z,3.04
2018-11-22T06:38:38.327Z,3.04
2018-11-22T06:39:38.434Z,3.04
2018-11-22T06:40:38.558Z,3.06
2018-11-22T06:41:38.473Z,3.07
2018-11-22T06:42:38.365Z,3.1
2018-11-22T06:43:38.502Z,3.07
2018-11-22T06:44:38.367Z,3.1
2018-11-22T06:45:38.497Z,3.1
2018-11-22T06:46:38.284Z,3.11
2018-11-22T06:47:38.348Z,3.06
2018-11-22T06:48:38.443Z,3.07
2018-11-22T06:49:38.326Z,3.06
2018-11-22T06:50:38.471Z,3.07
2018-11-22T06:51:38.319Z,3.06
2018-11-22T06:52:38.529Z,3.06
2018-11-22T06:53:38.287Z,3.08
2018-11-22T06:54:38.442Z,3.07
2018-11-22T06:55:38.283Z,3.06
2018-11-22T06:56:38.412Z,3.04
2018-11-22T06:57:38.344Z,3.08
2018-11-22T06:58:38.306Z,3.07
2018-11-22T06:59:38.360Z,3.06
2018-11-22T07:00:38.388Z,3.07
2018-11-22T07:01:38.346Z,3.06
2018-11-22T07:02:38.475Z,3.08
2018-11-22T07:03:38.737Z,3.07
2018-11-22T07:04:38.388Z,3.11
2018-11-22T07:05:38.337Z,3.11
2018-11-22T07:06:38.419Z,3.11
2018-11-22T07:07:38.388Z,3.15
2018-11-22T07:08:38.334Z,3.15
2018-11-22T07:09:38.295Z,3.18
2018-11-22T07:10:38.680Z,3.18
2018-11-22T07:11:38.378Z,3.17
2018-11-22T07:12:38.474Z,3.14
2018-11-22T07:13:38.431Z,3.15
2018-11-22T07:14:39.048Z,3.15
2018-11-22T07:15:38.272Z,3.14
2018-11-22T07:16:38.371Z,3.14
2018-11-22T07:17:38.348Z,3.12
2018-11-22T07:18:38.693Z,3.11
2018-11-22T07:19:38.350Z,3.07
2018-11-22T07:20:38.549Z,3.07
2018-11-22T07:21:38.351Z,3.07
2018-11-22T07:22:38.268Z,3.07
2018-11-22T07:23:38.259Z,3.03
2018-11-22T07:24:38.298Z,3.04
2018-11-22T07:25:38.228Z,3.06
2018-11-22T07:26:38.450Z,3.04
2018-11-22T07:27:38.457Z,3.07
2018-11-22T07:28:38.245Z,3.07
2018-11-22T07:29:38.242Z,3.06
2018-11-22T07:30:42.591Z,3.06
2018-11-22T07:31:38.198Z,3.03
2018-11-22T07:32:38.524Z,3.04
2018-11-22T07:33:38.747Z,3.01
2018-11-22T07:34:38.497Z,3.01
2018-11-22T07:35:38.346Z,3.04
2018-11-22T07:36:38.384Z,3.03
2018-11-22T07:37:38.770Z,3.04
2018-11-22T07:38:38.256Z,3.04
2018-11-22T07:39:38.396Z,3.01
2018-11-22T07:40:38.315Z,3
2018-11-22T07:41:38.249Z,3.01
2018-11-22T07:42:38.495Z,2.99
2018-11-22T07:43:38.756Z,2.99
2018-11-22T07:44:38.317Z,2.99
2018-11-22T07:45:38.195Z,3
2018-11-22T07:46:38.202Z,3
2018-11-22T07:47:38.209Z,3.03
2018-11-22T07:48:38.216Z,3.03
2018-11-22T07:49:38.222Z,3.03
2018-11-22T07:50:38.178Z,3
2018-11-22T07:51:38.171Z,3
2018-11-22T07:52:38.177Z,3.03
2018-11-22T07:53:38.177Z,2.96
2018-11-22T07:54:38.223Z,2.99
2018-11-22T07:55:38.178Z,2.99
2018-11-22T07:56:38.194Z,2.97
2018-11-22T07:57:38.192Z,2.99
2018-11-22T07:58:38.371Z,3
2018-11-22T07:59:38.479Z,3
2018-11-22T08:00:38.173Z,3.01
2018-11-22T08:01:38.218Z,3.01
2018-11-22T08:02:38.177Z,3.01
2018-11-22T08:03:38.167Z,3.01
2018-11-22T08:04:38.191Z,3.03
2018-11-22T08:05:38.199Z,3.04
2018-11-22T08:06:38.241Z,3.06
2018-11-22T08:07:38.350Z,3.04
2018-11-22T08:08:38.214Z,3.07
2018-11-22T08:09:38.271Z,3.08
2018-11-22T08:10:38.202Z,3.06
2018-11-22T08:11:38.252Z,3.08
2018-11-22T08:12:38.493Z,3.06
2018-11-22T08:13:38.234Z,3.11
2018-11-22T08:14:38.504Z,3.12
2018-11-22T08:15:39.036Z,3.12
2018-11-22T08:16:38.348Z,3.12
2018-11-22T08:17:38.232Z,3.12
2018-11-22T08:18:38.197Z,3.12
2018-11-22T08:19:38.138Z,3.17
2018-11-22T08:20:38.171Z,3.2
2018-11-22T08:21:38.469Z,3.2
2018-11-22T08:22:38.283Z,3.21
2018-11-22T08:23:38.155Z,3.22
2018-11-22T08:24:38.372Z,3.25
2018-11-22T08:25:38.260Z,3.24
2018-11-22T08:26:38.971Z,3.25
2018-11-22T08:27:38.250Z,3.27
2018-11-22T08:28:38.207Z,3.28
2018-11-22T08:29:38.257Z,3.29
2018-11-22T08:30:38.249Z,3.31
2018-11-22T08:31:38.251Z,3.34
2018-11-22T08:32:38.153Z,3.35
2018-11-22T08:33:38.224Z,3.34
2018-11-22T08:34:38.717Z,3.35
2018-11-22T08:35:38.262Z,3.34
2018-11-22T08:36:38.193Z,3.39
2018-11-22T08:37:38.132Z,3.38
2018-11-22T08:38:38.221Z,3.38
2018-11-22T08:39:38.137Z,3.38
2018-11-22T08:40:38.143Z,3.37
2018-11-22T08:41:38.211Z,3.41
2018-11-22T08:42:38.417Z,3.41
2018-11-22T08:43:38.165Z,3.41
2018-11-22T08:44:38.309Z,3.42
2018-11-22T08:45:38.181Z,3.42
2018-11-22T08:46:38.124Z,3.41
2018-11-22T08:47:38.297Z,3.38
2018-11-22T08:48:38.226Z,3.41
2018-11-22T08:49:38.246Z,3.31
2018-11-22T08:50:38.198Z,3.35
2018-11-22T08:51:38.137Z,3.35
2018-11-22T08:52:38.302Z,3.34
2018-11-22T08:53:38.155Z,3.38
2018-11-22T08:54:38.267Z,3.41
2018-11-22T08:55:38.191Z,3.37
2018-11-22T08:56:38.292Z,3.37
2018-11-22T08:57:38.234Z,3.34
2018-11-22T08:58:38.274Z,3.34
2018-11-22T08:59:38.414Z,3.34
2018-11-22T09:00:38.269Z,3.39
2018-11-22T09:01:38.463Z,3.37
2018-11-22T09:02:45.397Z,3.38
2018-11-22T09:03:38.232Z,3.41
2018-11-22T09:04:38.179Z,3.41
2018-11-22T09:05:38.148Z,3.46
2018-11-22T09:06:38.317Z,3.48
2018-11-22T09:07:38.299Z,3.44
2018-11-22T09:08:38.407Z,3.49
2018-11-22T09:09:38.237Z,3.48
2018-11-22T09:10:38.250Z,3.45
2018-11-22T09:11:38.162Z,3.46
2018-11-22T09:12:38.172Z,3.52
2018-11-22T09:13:38.296Z,3.55
2018-11-22T09:14:38.143Z,3.58
2018-11-22T09:15:38.151Z,3.59
2018-11-22T09:16:38.112Z,3.62
2018-11-22T09:17:38.119Z,3.66
2018-11-22T09:18:38.172Z,3.69
2018-11-22T09:19:38.278Z,3.69
2018-11-22T09:20:38.122Z,3.7
2018-11-22T09:21:38.115Z,3.73
2018-11-22T09:22:38.201Z,3.72
2018-11-22T09:23:38.732Z,3.73
2018-11-22T09:24:39.103Z,3.73
2018-11-22T09:25:38.082Z,3.74
2018-11-22T09:26:38.172Z,3.74
2018-11-22T09:27:38.134Z,3.8
2018-11-22T09:28:38.164Z,3.84
2018-11-22T09:29:39.787Z,3.83
2018-11-22T09:30:38.453Z,3.87
2018-11-22T09:31:38.101Z,3.9
2018-11-22T09:32:38.108Z,3.9
2018-11-22T09:33:38.121Z,3.9
2018-11-22T09:34:38.286Z,3.96
2018-11-22T09:35:38.097Z,3.94
2018-11-22T09:36:38.061Z,3.93
2018-11-22T09:37:38.128Z,3.93
2018-11-22T09:38:38.282Z,3.97
2018-11-22T09:39:38.084Z,3.96
2018-11-22T09:40:38.332Z,3.96
2018-11-22T09:41:38.141Z,3.87
2018-11-22T09:42:38.144Z,3.96
2018-11-22T09:43:38.207Z,3.89
2018-11-22T09:44:38.230Z,3.94
2018-11-22T09:45:38.266Z,3.96
2018-11-22T09:46:38.195Z,3.87
2018-11-22T09:47:38.237Z,3.84
2018-11-22T09:48:38.347Z,3.89
2018-11-22T09:49:38.061Z,3.91
2018-11-22T09:50:38.291Z,3.96
2018-11-22T09:51:38.257Z,4.02
2018-11-22T09:52:38.156Z,4.05
2018-11-22T09:53:38.245Z,4.08
2018-11-22T09:54:38.164Z,4.08
2018-11-22T09:55:38.170Z,4.12
2018-11-22T09:56:38.145Z,4.18
2018-11-22T09:57:38.069Z,4.18
2018-11-22T09:58:38.289Z,4.18
2018-11-22T09:59:38.155Z,4.19
2018-11-22T10:00:38.171Z,4.19
2018-11-22T10:01:38.047Z,4.17
2018-11-22T10:02:38.155Z,4.21
2018-11-22T10:03:38.024Z,4.21
2018-11-22T10:04:38.398Z,4.22
2018-11-22T10:05:38.218Z,4.26
2018-11-22T10:06:38.087Z,4.3
2018-11-22T10:07:38.085Z,4.3
2018-11-22T10:08:38.358Z,4.3
2018-11-22T10:09:38.227Z,4.3
2018-11-22T10:10:38.146Z,4.33
2018-11-22T10:11:38.037Z,4.3
2018-11-22T10:12:38.538Z,4.3
2018-11-22T10:13:38.096Z,4.33
2018-11-22T10:14:38.018Z,4.35
2018-11-22T10:15:38.103Z,4.35
2018-11-22T10:16:38.192Z,4.38
2018-11-22T10:17:38.267Z,4.39
2018-11-22T10:18:38.475Z,4.42
2018-11-22T10:19:38.128Z,4.45
2018-11-22T10:20:38.237Z,4.46
2018-11-22T10:21:38.107Z,4.46
2018-11-22T10:22:38.628Z,4.49
2018-11-22T10:23:38.260Z,4.53
2018-11-22T10:24:38.162Z,4.52
2018-11-22T10:25:38.169Z,4.52
2018-11-22T10:26:38.354Z,4.49
2018-11-22T10:27:37.988Z,4.51
2018-11-22T10:28:38.512Z,4.53
2018-11-22T10:29:38.119Z,4.57
2018-11-22T10:30:38.105Z,4.59
2018-11-22T10:31:38.365Z,4.62
2018-11-22T10:32:38.185Z,4.66
2018-11-22T10:33:37.997Z,4.66
2018-11-22T10:34:38.097Z,4.67
2018-11-22T10:35:37.973Z,4.69
2018-11-22T10:36:38.114Z,4.72
2018-11-22T10:37:38.260Z,4.67
2018-11-22T10:38:38.100Z,4.67
2018-11-22T10:39:38.008Z,4.72
2018-11-22T10:40:38.151Z,4.74
2018-11-22T10:41:38.526Z,4.83
2018-11-22T10:42:38.622Z,4.88
2018-11-22T10:43:38.085Z,4.94
2018-11-22T10:44:38.063Z,5
2018-11-22T10:45:38.084Z,4.98
2018-11-22T10:46:37.972Z,5.01
2018-11-22T10:47:38.031Z,5.04
2018-11-22T10:48:38.001Z,5
2018-11-22T10:49:38.049Z,5.01
2018-11-22T10:50:38.090Z,5.1
2018-11-22T10:51:37.953Z,5.12
2018-11-22T10:52:38.000Z,5.22
2018-11-22T10:53:37.966Z,5.25
2018-11-22T10:54:38.129Z,5.32
2018-11-22T10:55:38.148Z,5.35
2018-11-22T10:56:37.937Z,5.38
2018-11-22T10:57:38.004Z,5.36
2018-11-22T10:58:37.953Z,5.42
2018-11-22T10:59:38.011Z,5.47
2018-11-22T11:00:37.998Z,5.43
2018-11-22T11:01:38.087Z,5.42
2018-11-22T11:02:38.030Z,5.43
2018-11-22T11:03:37.999Z,5.43
2018-11-22T11:04:37.999Z,5.45
2018-11-22T11:05:38.222Z,5.36
2018-11-22T11:06:37.993Z,5.39
2018-11-22T11:07:37.985Z,5.36
2018-11-22T11:08:38.024Z,5.23
2018-11-22T11:09:37.976Z,5.23
2018-11-22T11:10:38.023Z,5.26
2018-11-22T11:11:38.067Z,5.28
2018-11-22T11:12:38.023Z,5.35
2018-11-22T11:13:38.070Z,5.39
2018-11-22T11:14:37.908Z,5.49
2018-11-22T11:15:37.921Z,5.56
2018-11-22T11:16:38.111Z,5.62
2018-11-22T11:17:38.299Z,5.7
2018-11-22T11:18:38.028Z,5.75
2018-11-22T11:19:38.062Z,5.81
2018-11-22T11:20:38.099Z,5.8
2018-11-22T11:21:38.148Z,5.83
2018-11-22T11:22:37.994Z,5.9
2018-11-22T11:23:38.103Z,5.92
2018-11-22T11:24:39.779Z,5.9
2018-11-22T11:25:38.058Z,5.85
2018-11-22T11:26:38.192Z,5.91
2018-11-22T11:27:38.083Z,5.91
2018-11-22T11:28:38.023Z,5.94
2018-11-22T11:29:38.298Z,5.95
2018-11-22T11:30:39.025Z,5.63
2018-11-22T11:31:38.007Z,5.47
2018-11-22T11:32:38.250Z,5.63
2018-11-22T11:33:37.943Z,5.69
2018-11-22T11:34:38.271Z,5.66
2018-11-22T11:35:37.973Z,5.73
2018-11-22T11:36:38.014Z,5.77
2018-11-22T11:37:38.065Z,5.78
2018-11-22T11:38:37.876Z,5.87
2018-11-22T11:39:38.101Z,5.8
2018-11-22T11:40:38.009Z,5.83
2018-11-22T11:41:38.282Z,5.83
2018-11-22T11:42:38.090Z,5.75
2018-11-22T11:43:38.105Z,5.57
2018-11-22T11:44:38.251Z,5.47
2018-11-22T11:45:37.988Z,5.57
2018-11-22T11:46:38.179Z,5.6
2018-11-22T11:47:38.041Z,5.67
2018-11-22T11:48:38.206Z,5.71
2018-11-22T11:49:38.016Z,5.74
2018-11-22T11:50:38.028Z,5.77
2018-11-22T11:51:38.047Z,5.7
2018-11-22T11:52:38.380Z,5.71
2018-11-22T11:53:41.897Z,5.69
2018-11-22T11:54:38.132Z,5.66
2018-11-22T11:55:38.008Z,5.66
2018-11-22T11:56:37.891Z,5.7
2018-11-22T11:57:38.039Z,5.73
2018-11-22T11:58:38.008Z,5.75
2018-11-22T11:59:38.204Z,5.75
2018-11-22T12:00:38.121Z,5.7
2018-11-22T12:01:37.953Z,5.57
2018-11-22T12:02:37.958Z,5.6
2018-11-22T12:03:38.095Z,5.56
2018-11-22T12:04:38.221Z,5.57
2018-11-22T12:05:38.111Z,5.51
2018-11-22T12:06:37.956Z,5.51
2018-11-22T12:07:38.120Z,5.49
2018-11-22T12:08:38.042Z,5.5
2018-11-22T12:09:37.977Z,5.56
2018-11-22T12:10:37.916Z,5.64
2018-11-22T12:11:38.216Z,5.71
2018-11-22T12:12:37.899Z,5.74
2018-11-22T12:13:38.518Z,5.8
2018-11-22T12:14:37.981Z,5.88
2018-11-22T12:15:37.973Z,5.87
2018-11-22T12:16:37.853Z,5.87
2018-11-22T12:17:38.009Z,5.85
2018-11-22T12:18:37.843Z,5.84
2018-11-22T12:19:37.828Z,5.91
2018-11-22T12:20:37.835Z,5.92
2018-11-22T12:21:37.949Z,5.95
2018-11-22T12:22:37.850Z,6
2018-11-22T12:23:37.874Z,6
2018-11-22T12:24:37.955Z,6.02
2018-11-22T12:25:37.850Z,6.09
2018-11-22T12:26:37.824Z,6.06
2018-11-22T12:27:38.133Z,6.08
2018-11-22T12:28:37.830Z,6.12
2018-11-22T12:29:37.834Z,6.11
2018-11-22T12:30:37.870Z,6.11
2018-11-22T12:31:37.854Z,6.09
2018-11-22T12:32:38.037Z,6.13
2018-11-22T12:33:37.965Z,6.11
2018-11-22T12:34:37.813Z,6.11
2018-11-22T12:35:37.955Z,6.12
2018-11-22T12:36:37.978Z,6.15
2018-11-22T12:37:43.523Z,6.16
2018-11-22T12:38:38.166Z,6.19
2018-11-22T12:39:37.992Z,6.08
2018-11-22T12:40:37.947Z,6.15
2018-11-22T12:41:37.875Z,6.15
2018-11-22T12:42:37.967Z,6.16
2018-11-22T12:43:37.877Z,6.22
2018-11-22T12:44:37.840Z,6.22
2018-11-22T12:45:37.990Z,6.15
2018-11-22T12:46:38.203Z,6.13
2018-11-22T12:47:38.097Z,6.12
2018-11-22T12:48:37.823Z,6.04
2018-11-22T12:49:37.828Z,6.06
2018-11-22T12:50:37.823Z,6.08
2018-11-22T12:51:37.910Z,6.08
2018-11-22T12:52:37.895Z,6.12
2018-11-22T12:53:38.301Z,6.09
2018-11-22T12:54:38.244Z,6.15
2018-11-22T12:55:37.791Z,6.16
2018-11-22T12:56:38.026Z,6.12
2018-11-22T12:57:37.932Z,6.15
2018-11-22T12:58:37.998Z,6.15
2018-11-22T12:59:38.001Z,6.16
2018-11-22T13:00:38.195Z,6.2
2018-11-22T13:01:37.832Z,6.22
2018-11-22T13:02:37.809Z,6.23
2018-11-22T13:03:37.976Z,6.23
2018-11-22T13:04:37.813Z,6.25
2018-11-22T13:05:37.820Z,6.28
2018-11-22T13:06:37.787Z,6.29
2018-11-22T13:07:38.145Z,6.25
2018-11-22T13:08:37.985Z,6.28
2018-11-22T13:09:37.806Z,6.28
2018-11-22T13:10:38.147Z,6.22
2018-11-22T13:11:37.838Z,6.25
2018-11-22T13:12:37.799Z,6.19
2018-11-22T13:13:38.036Z,6.22
2018-11-22T13:14:38.094Z,6.29
2018-11-22T13:15:37.915Z,6.32
2018-11-22T13:16:37.939Z,6.35
2018-11-22T13:17:37.826Z,6.33
2018-11-22T13:18:37.812Z,6.35
2018-11-22T13:19:38.251Z,6.35
2018-11-22T13:20:38.199Z,6.3